Seattle, Washington
Traffic Map
Current Weather Conditions
Seattle, Washington
Overcast
Overcast
56°
Feels Like: 56°
Wind Chill: 56° Ceiling: 4000
Heat Index: 56° Visibility: 10mi
Dew Point: 49° Wind: 5mph
Humidity: 77% Direction: ° ()
Pressure: 30.2in Gusts: 0mph
Raw Report DataKBFI 261953Z VRB04KT 10SM SCT017 OVC040 13/09 A3020 RMK AO2 SLP224 T01330094
Traffic Incident Summary
Active as of:
Severity:
Category:
InformationThere was an issue retrieving the traffic information for this location. Please try a different location or try again shortly.
Advertisements
Track Severe Weather on mobile